LiveATC.Net - Listen to live air traffic control over the Internet!


ICAO: KFFC  IATA: FFC   Airport: Atlanta Regional Airport-Falcon Field
City: Atlanta   State/Province: Georgia
Country: United States   Continent: North America
KFFC METAR Weather: KFFC 251153Z AUTO 00000KT 9SM FEW008 15/13 A2998 RMK AO2 SLP147 T01500133 10161 20128 51008
KFFC Flight Activity (FlightAware)
KFFC Airport Info   (iFlightPlanner)
KFFC VFR Sectional Chart   (iFlightPlanner) 
KFFC IFR Low Chart   (iFlightPlanner) 

KFFC CTAF
Feed Status: UP   Listeners: 0
Listen in your browser - HTML5 player (in browser, HTML5)
Click here to listen with your own player (launches your MP3 player)
KFFC CTAF Audio Archives
FacilityFrequency
Falcon CTAF123.050

NOTICE

Unauthorized use prohibited. See LiveATC.net Terms of Service


Find LiveATC Audio Streams


Airport/ARTCC Code

Frequency Search
(e.g., 124.400, 128.75)
Site-wide search
 


Browse LiveATC Feeds
Top 50 LiveATC Feeds
LiveATC Feed Map
Bad Weather Areas

LiveATC FAQ
Offer LiveATC feed
Contact LiveATC.net
Press Inquiries

LiveATC on iPhone
LiveATC on Android

Windows Phone
Windows 8/10

LiveATC Mobile
(Mobile browser)

ATC Audio Archives
Interesting Recordings

LiveATC Forums


Home Page
About LiveATC.net
Make a Donation
Terms of Use
Privacy Policy

Canadian Air Freqs

AIRMETs/SIGMETs

FAA Airport Status
Nat'l Airspace Status
Arrival Demand Charts


Server Software By:
Icecast.org
Liquidsoap